sensor_id;sensor_type;location;lat;lon;timestamp;noise_LAeq;noise_LA_min;noise_LA_max;noise_LA01;noise_LA95
76261;Laerm;65076;52.362;6.588;2023-06-24T00:00:14;47.05;32.44;64.75;;
76261;Laerm;65076;52.362;6.588;2023-06-24T00:02:44;36.86;31.94;44.99;;
76261;Laerm;65076;52.362;6.588;2023-06-24T00:05:12;42.24;32.33;59.89;;
76261;Laerm;65076;52.362;6.588;2023-06-24T00:07:40;38.39;33.25;50.96;;
76261;Laerm;65076;52.362;6.588;2023-06-24T00:10:14;38.77;32.92;49.86;;
76261;Laerm;65076;52.362;6.588;2023-06-24T00:12:44;35.16;31.96;39.03;;
76261;Laerm;65076;52.362;6.588;2023-06-24T00:15:12;36.08;32.84;46.97;;
76261;Laerm;65076;52.362;6.588;2023-06-24T00:17:41;63.67;32.50;80.04;;
76261;Laerm;65076;52.362;6.588;2023-06-24T00:20:11;64.57;33.24;80.26;;
76261;Laerm;65076;52.362;6.588;2023-06-24T00:22:41;35.63;32.17;45.64;;
76261;Laerm;65076;52.362;6.588;2023-06-24T00:25:11;35.66;31.90;47.49;;
76261;Laerm;65076;52.362;6.588;2023-06-24T00:27:39;45.05;31.91;63.15;;
76261;Laerm;65076;52.362;6.588;2023-06-24T00:30:09;36.40;32.47;45.98;;
76261;Laerm;65076;52.362;6.588;2023-06-24T00:32:37;37.56;32.67;55.61;;
76261;Laerm;65076;52.362;6.588;2023-06-24T00:35:06;35.66;32.56;40.46;;
76261;Laerm;65076;52.362;6.588;2023-06-24T00:37:35;34.78;31.87;39.27;;
76261;Laerm;65076;52.362;6.588;2023-06-24T00:40:07;34.64;31.70;40.62;;
76261;Laerm;65076;52.362;6.588;2023-06-24T00:42:38;43.74;32.19;61.24;;
76261;Laerm;65076;52.362;6.588;2023-06-24T00:45:08;35.55;32.48;39.40;;
76261;Laerm;65076;52.362;6.588;2023-06-24T00:47:37;35.73;32.30;43.18;;
76261;Laerm;65076;52.362;6.588;2023-06-24T00:50:06;41.92;32.42;60.51;;
76261;Laerm;65076;52.362;6.588;2023-06-24T00:52:36;42.98;31.16;60.06;;
76261;Laerm;65076;52.362;6.588;2023-06-24T00:55:09;35.17;31.83;56.20;;
76261;Laerm;65076;52.362;6.588;2023-06-24T00:57:40;43.77;31.31;60.06;;
76261;Laerm;65076;52.362;6.588;2023-06-24T01:00:09;37.51;31.69;46.20;;
76261;Laerm;65076;52.362;6.588;2023-06-24T01:02:41;34.84;31.47;42.12;;
76261;Laerm;65076;52.362;6.588;2023-06-24T01:05:10;35.60;31.70;54.76;;
76261;Laerm;65076;52.362;6.588;2023-06-24T01:07:42;45.08;31.86;63.13;;
76261;Laerm;65076;52.362;6.588;2023-06-24T01:10:10;43.36;31.58;65.74;;
76261;Laerm;65076;52.362;6.588;2023-06-24T01:12:40;34.71;31.49;45.38;;
76261;Laerm;65076;52.362;6.588;2023-06-24T01:15:11;34.99;31.97;46.38;;
76261;Laerm;65076;52.362;6.588;2023-06-24T01:17:46;35.10;30.98;44.08;;
76261;Laerm;65076;52.362;6.588;2023-06-24T01:20:25;35.70;31.18;55.45;;
76261;Laerm;65076;52.362;6.588;2023-06-24T01:23:50;40.69;31.18;57.89;;
76261;Laerm;65076;52.362;6.588;2023-06-24T01:26:57;48.34;31.78;69.01;;
76261;Laerm;65076;52.362;6.588;2023-06-24T01:29:51;35.22;32.40;41.18;;
76261;Laerm;65076;52.362;6.588;2023-06-24T01:32:28;35.29;31.86;43.08;;
76261;Laerm;65076;52.362;6.588;2023-06-24T01:35:07;34.89;31.57;43.46;;
76261;Laerm;65076;52.362;6.588;2023-06-24T01:37:42;35.09;32.22;39.47;;
76261;Laerm;65076;52.362;6.588;2023-06-24T01:40:20;35.26;32.44;41.26;;
76261;Laerm;65076;52.362;6.588;2023-06-24T01:42:49;34.98;31.55;38.83;;
76261;Laerm;65076;52.362;6.588;2023-06-24T01:45:23;34.83;31.80;40.50;;
76261;Laerm;65076;52.362;6.588;2023-06-24T01:48:08;34.67;32.15;42.40;;
76261;Laerm;65076;52.362;6.588;2023-06-24T01:50:39;35.10;32.20;42.71;;
76261;Laerm;65076;52.362;6.588;2023-06-24T01:53:11;36.86;32.13;50.90;;
76261;Laerm;65076;52.362;6.588;2023-06-24T01:55:42;38.11;32.25;58.46;;
76261;Laerm;65076;52.362;6.588;2023-06-24T01:58:14;41.44;32.75;54.97;;
76261;Laerm;65076;52.362;6.588;2023-06-24T02:00:44;42.22;32.97;57.74;;
76261;Laerm;65076;52.362;6.588;2023-06-24T02:03:15;40.83;33.10;53.93;;
76261;Laerm;65076;52.362;6.588;2023-06-24T02:05:46;41.71;32.65;54.35;;
76261;Laerm;65076;52.362;6.588;2023-06-24T02:08:16;42.46;33.61;55.81;;
76261;Laerm;65076;52.362;6.588;2023-06-24T02:10:46;42.68;33.51;66.91;;
76261;Laerm;65076;52.362;6.588;2023-06-24T02:13:16;53.68;34.30;70.83;;
76261;Laerm;65076;52.362;6.588;2023-06-24T02:15:47;51.95;34.33;69.58;;
76261;Laerm;65076;52.362;6.588;2023-06-24T02:18:20;42.99;34.69;56.82;;
76261;Laerm;65076;52.362;6.588;2023-06-24T02:20:51;44.49;34.16;59.15;;
76261;Laerm;65076;52.362;6.588;2023-06-24T02:23:21;51.80;33.17;69.75;;
76261;Laerm;65076;52.362;6.588;2023-06-24T02:25:53;46.73;34.09;65.05;;
76261;Laerm;65076;52.362;6.588;2023-06-24T02:28:23;47.82;33.49;65.90;;
76261;Laerm;65076;52.362;6.588;2023-06-24T02:30:52;49.41;34.65;68.60;;
76261;Laerm;65076;52.362;6.588;2023-06-24T02:33:22;50.47;32.85;68.79;;
76261;Laerm;65076;52.362;6.588;2023-06-24T02:35:50;46.38;34.61;69.23;;
76261;Laerm;65076;52.362;6.588;2023-06-24T02:38:18;42.60;33.23;61.84;;
76261;Laerm;65076;52.362;6.588;2023-06-24T02:40:46;41.30;34.19;53.26;;
76261;Laerm;65076;52.362;6.588;2023-06-24T02:43:14;38.14;33.92;48.35;;
76261;Laerm;65076;52.362;6.588;2023-06-24T02:45:43;47.96;33.48;70.39;;
76261;Laerm;65076;52.362;6.588;2023-06-24T02:48:13;40.71;33.78;62.92;;
76261;Laerm;65076;52.362;6.588;2023-06-24T02:50:44;41.43;33.83;58.85;;
76261;Laerm;65076;52.362;6.588;2023-06-24T02:53:15;38.03;33.31;46.43;;
76261;Laerm;65076;52.362;6.588;2023-06-24T02:55:44;46.82;33.26;63.92;;
76261;Laerm;65076;52.362;6.588;2023-06-24T02:58:13;40.05;33.45;51.14;;
76261;Laerm;65076;52.362;6.588;2023-06-24T03:00:41;39.71;33.28;55.63;;
76261;Laerm;65076;52.362;6.588;2023-06-24T03:03:10;44.01;33.27;61.65;;
76261;Laerm;65076;52.362;6.588;2023-06-24T03:05:39;39.35;33.32;54.97;;
76261;Laerm;65076;52.362;6.588;2023-06-24T03:08:09;45.73;33.79;62.86;;
76261;Laerm;65076;52.362;6.588;2023-06-24T03:10:39;43.36;34.26;62.29;;
76261;Laerm;65076;52.362;6.588;2023-06-24T03:13:08;39.88;33.91;57.27;;
76261;Laerm;65076;52.362;6.588;2023-06-24T03:15:36;49.56;33.61;70.16;;
76261;Laerm;65076;52.362;6.588;2023-06-24T03:18:04;52.09;33.95;66.38;;
76261;Laerm;65076;52.362;6.588;2023-06-24T03:20:32;50.26;33.77;62.44;;
76261;Laerm;65076;52.362;6.588;2023-06-24T03:23:06;49.40;34.18;63.77;;
76261;Laerm;65076;52.362;6.588;2023-06-24T03:25:35;42.59;33.49;55.68;;
76261;Laerm;65076;52.362;6.588;2023-06-24T03:28:03;46.06;33.74;63.04;;
76261;Laerm;65076;52.362;6.588;2023-06-24T03:30:34;45.59;34.23;60.43;;
76261;Laerm;65076;52.362;6.588;2023-06-24T03:33:02;38.46;33.99;44.94;;
76261;Laerm;65076;52.362;6.588;2023-06-24T03:35:30;37.98;33.71;48.69;;
76261;Laerm;65076;52.362;6.588;2023-06-24T03:37:59;46.71;34.33;62.39;;
76261;Laerm;65076;52.362;6.588;2023-06-24T03:40:27;38.88;34.43;56.86;;
76261;Laerm;65076;52.362;6.588;2023-06-24T03:42:56;50.31;35.06;68.08;;
76261;Laerm;65076;52.362;6.588;2023-06-24T03:45:24;46.53;35.34;63.17;;
76261;Laerm;65076;52.362;6.588;2023-06-24T03:47:53;45.11;35.11;63.55;;
76261;Laerm;65076;52.362;6.588;2023-06-24T03:50:21;37.99;34.49;48.62;;
76261;Laerm;65076;52.362;6.588;2023-06-24T03:52:49;40.79;34.16;56.83;;
76261;Laerm;65076;52.362;6.588;2023-06-24T03:55:17;44.85;34.66;58.28;;
76261;Laerm;65076;52.362;6.588;2023-06-24T03:57:45;43.27;34.21;60.86;;
76261;Laerm;65076;52.362;6.588;2023-06-24T04:00:15;43.83;34.55;58.39;;
76261;Laerm;65076;52.362;6.588;2023-06-24T04:02:44;43.65;35.10;58.44;;
76261;Laerm;65076;52.362;6.588;2023-06-24T04:05:13;44.67;34.68;59.17;;
76261;Laerm;65076;52.362;6.588;2023-06-24T04:07:41;45.56;34.53;59.63;;
76261;Laerm;65076;52.362;6.588;2023-06-24T04:10:14;54.28;33.95;71.57;;
76261;Laerm;65076;52.362;6.588;2023-06-24T04:12:42;41.59;34.68;57.00;;
76261;Laerm;65076;52.362;6.588;2023-06-24T04:15:11;49.82;34.25;67.14;;
76261;Laerm;65076;52.362;6.588;2023-06-24T04:17:40;45.55;35.56;64.06;;
76261;Laerm;65076;52.362;6.588;2023-06-24T04:20:09;50.99;35.09;68.56;;
76261;Laerm;65076;52.362;6.588;2023-06-24T04:22:40;42.92;33.13;56.97;;
76261;Laerm;65076;52.362;6.588;2023-06-24T04:25:09;45.08;35.67;62.21;;
76261;Laerm;65076;52.362;6.588;2023-06-24T04:27:37;45.21;35.90;58.42;;
76261;Laerm;65076;52.362;6.588;2023-06-24T04:30:06;51.30;35.98;70.24;;
76261;Laerm;65076;52.362;6.588;2023-06-24T04:32:34;43.57;35.74;57.88;;
76261;Laerm;65076;52.362;6.588;2023-06-24T04:35:04;44.64;35.84;58.53;;
76261;Laerm;65076;52.362;6.588;2023-06-24T04:37:32;44.91;34.55;57.65;;
76261;Laerm;65076;52.362;6.588;2023-06-24T04:40:00;56.46;35.76;74.60;;
76261;Laerm;65076;52.362;6.588;2023-06-24T04:42:29;43.79;35.70;62.26;;
76261;Laerm;65076;52.362;6.588;2023-06-24T04:44:57;44.03;36.01;59.26;;
76261;Laerm;65076;52.362;6.588;2023-06-24T04:47:25;45.68;35.93;59.58;;
76261;Laerm;65076;52.362;6.588;2023-06-24T04:49:53;52.54;36.33;73.00;;
76261;Laerm;65076;52.362;6.588;2023-06-24T04:52:23;41.37;35.10;52.91;;
76261;Laerm;65076;52.362;6.588;2023-06-24T04:54:51;42.37;36.51;55.23;;
76261;Laerm;65076;52.362;6.588;2023-06-24T04:57:28;45.29;35.25;61.56;;
76261;Laerm;65076;52.362;6.588;2023-06-24T04:59:58;53.25;36.17;70.11;;
76261;Laerm;65076;52.362;6.588;2023-06-24T05:02:33;54.23;35.11;72.04;;
76261;Laerm;65076;52.362;6.588;2023-06-24T05:05:01;43.34;34.02;57.21;;
76261;Laerm;65076;52.362;6.588;2023-06-24T05:07:31;57.49;35.61;76.81;;
76261;Laerm;65076;52.362;6.588;2023-06-24T05:09:59;59.25;36.37;75.13;;
76261;Laerm;65076;52.362;6.588;2023-06-24T05:12:27;48.91;37.11;72.84;;
76261;Laerm;65076;52.362;6.588;2023-06-24T05:14:55;48.57;38.10;67.98;;
76261;Laerm;65076;52.362;6.588;2023-06-24T05:17:24;50.86;38.20;64.40;;
76261;Laerm;65076;52.362;6.588;2023-06-24T05:19:52;46.93;36.44;67.97;;
76261;Laerm;65076;52.362;6.588;2023-06-24T05:22:20;46.15;36.59;60.99;;
76261;Laerm;65076;52.362;6.588;2023-06-24T05:24:49;60.84;39.34;82.10;;
76261;Laerm;65076;52.362;6.588;2023-06-24T05:27:17;50.01;38.01;62.80;;
76261;Laerm;65076;52.362;6.588;2023-06-24T05:29:45;46.26;38.18;62.05;;
76261;Laerm;65076;52.362;6.588;2023-06-24T05:32:13;49.51;37.52;66.99;;
76261;Laerm;65076;52.362;6.588;2023-06-24T05:34:43;49.37;37.76;61.22;;
76261;Laerm;65076;52.362;6.588;2023-06-24T05:37:12;47.73;37.84;62.27;;
76261;Laerm;65076;52.362;6.588;2023-06-24T05:39:40;60.94;37.33;76.52;;
76261;Laerm;65076;52.362;6.588;2023-06-24T05:42:09;50.87;36.92;68.88;;
76261;Laerm;65076;52.362;6.588;2023-06-24T05:44:37;51.47;36.26;69.14;;
76261;Laerm;65076;52.362;6.588;2023-06-24T05:47:05;47.25;36.57;59.25;;
76261;Laerm;65076;52.362;6.588;2023-06-24T05:49:33;55.92;38.30;71.19;;
76261;Laerm;65076;52.362;6.588;2023-06-24T05:52:02;50.91;36.87;67.06;;
76261;Laerm;65076;52.362;6.588;2023-06-24T05:54:30;59.61;38.88;86.16;;
76261;Laerm;65076;52.362;6.588;2023-06-24T05:56:58;49.98;38.39;61.93;;
76261;Laerm;65076;52.362;6.588;2023-06-24T05:59:30;52.82;41.07;68.80;;
76261;Laerm;65076;52.362;6.588;2023-06-24T06:01:58;50.90;35.13;65.90;;
76261;Laerm;65076;52.362;6.588;2023-06-24T06:04:29;49.93;35.18;67.63;;
76261;Laerm;65076;52.362;6.588;2023-06-24T06:06:57;49.77;35.25;63.44;;
76261;Laerm;65076;52.362;6.588;2023-06-24T06:09:25;56.58;36.58;74.42;;
76261;Laerm;65076;52.362;6.588;2023-06-24T06:11:53;59.01;36.29;75.74;;
76261;Laerm;65076;52.362;6.588;2023-06-24T06:14:21;52.39;35.28;65.53;;
76261;Laerm;65076;52.362;6.588;2023-06-24T06:16:50;52.74;36.17;66.37;;
76261;Laerm;65076;52.362;6.588;2023-06-24T06:19:19;55.50;34.80;72.73;;
76261;Laerm;65076;52.362;6.588;2023-06-24T06:21:48;56.28;37.54;74.57;;
76261;Laerm;65076;52.362;6.588;2023-06-24T06:24:16;61.29;36.48;84.78;;
76261;Laerm;65076;52.362;6.588;2023-06-24T06:26:45;60.97;37.20;80.91;;
76261;Laerm;65076;52.362;6.588;2023-06-24T06:29:13;50.67;35.90;64.74;;
76261;Laerm;65076;52.362;6.588;2023-06-24T06:31:41;57.08;34.25;68.06;;
76261;Laerm;65076;52.362;6.588;2023-06-24T06:34:10;53.90;34.92;71.33;;
76261;Laerm;65076;52.362;6.588;2023-06-24T06:36:38;58.91;34.82;77.04;;
76261;Laerm;65076;52.362;6.588;2023-06-24T06:39:06;60.85;38.96;75.72;;
76261;Laerm;65076;52.362;6.588;2023-06-24T06:41:34;57.58;36.48;75.06;;
76261;Laerm;65076;52.362;6.588;2023-06-24T06:44:02;57.21;48.50;73.88;;
76261;Laerm;65076;52.362;6.588;2023-06-24T06:46:30;56.84;40.27;74.81;;
76261;Laerm;65076;52.362;6.588;2023-06-24T06:48:58;56.55;47.69;71.69;;
76261;Laerm;65076;52.362;6.588;2023-06-24T06:51:28;55.64;49.23;67.76;;
76261;Laerm;65076;52.362;6.588;2023-06-24T06:53:56;62.33;42.38;78.00;;
76261;Laerm;65076;52.362;6.588;2023-06-24T06:56:25;54.30;34.21;68.10;;
76261;Laerm;65076;52.362;6.588;2023-06-24T06:58:53;53.10;38.88;69.22;;
76261;Laerm;65076;52.362;6.588;2023-06-24T07:01:21;51.57;41.68;61.62;;
76261;Laerm;65076;52.362;6.588;2023-06-24T07:03:51;52.95;40.73;63.61;;
76261;Laerm;65076;52.362;6.588;2023-06-24T07:06:19;52.28;37.50;62.74;;
76261;Laerm;65076;52.362;6.588;2023-06-24T07:08:49;64.54;49.50;86.66;;
76261;Laerm;65076;52.362;6.588;2023-06-24T07:11:17;63.52;58.96;74.37;;
76261;Laerm;65076;52.362;6.588;2023-06-24T07:13:46;62.21;58.42;69.98;;
76261;Laerm;65076;52.362;6.588;2023-06-24T07:16:17;61.08;55.90;78.11;;
76261;Laerm;65076;52.362;6.588;2023-06-24T07:18:45;64.47;55.15;92.46;;
76261;Laerm;65076;52.362;6.588;2023-06-24T07:21:13;64.22;43.13;83.15;;
76261;Laerm;65076;52.362;6.588;2023-06-24T07:23:41;60.78;42.85;79.49;;
76261;Laerm;65076;52.362;6.588;2023-06-24T07:26:10;55.53;36.54;70.79;;
76261;Laerm;65076;52.362;6.588;2023-06-24T07:28:40;53.04;40.70;64.22;;
76261;Laerm;65076;52.362;6.588;2023-06-24T07:31:08;53.49;42.24;67.96;;
76261;Laerm;65076;52.362;6.588;2023-06-24T07:33:36;54.95;37.48;69.42;;
76261;Laerm;65076;52.362;6.588;2023-06-24T07:36:05;62.19;54.30;78.80;;
76261;Laerm;65076;52.362;6.588;2023-06-24T07:38:35;62.75;54.18;73.70;;
76261;Laerm;65076;52.362;6.588;2023-06-24T07:41:03;61.56;52.68;80.92;;
76261;Laerm;65076;52.362;6.588;2023-06-24T07:43:32;57.14;51.54;66.98;;
76261;Laerm;65076;52.362;6.588;2023-06-24T07:46:01;57.08;51.36;67.77;;
76261;Laerm;65076;52.362;6.588;2023-06-24T07:48:29;56.75;51.56;65.82;;
76261;Laerm;65076;52.362;6.588;2023-06-24T07:50:57;61.52;52.25;93.19;;
76261;Laerm;65076;52.362;6.588;2023-06-24T07:53:25;63.84;53.92;85.80;;
76261;Laerm;65076;52.362;6.588;2023-06-24T07:55:54;61.18;45.69;66.67;;
76261;Laerm;65076;52.362;6.588;2023-06-24T07:58:22;61.17;56.20;85.12;;
76261;Laerm;65076;52.362;6.588;2023-06-24T08:00:51;61.27;55.80;70.90;;
76261;Laerm;65076;52.362;6.588;2023-06-24T08:03:20;62.94;54.97;74.64;;
76261;Laerm;65076;52.362;6.588;2023-06-24T08:05:48;61.93;57.51;69.10;;
76261;Laerm;65076;52.362;6.588;2023-06-24T08:08:17;62.21;56.79;73.85;;
76261;Laerm;65076;52.362;6.588;2023-06-24T08:10:47;62.71;41.40;77.46;;
76261;Laerm;65076;52.362;6.588;2023-06-24T08:13:15;53.83;42.30;65.51;;
76261;Laerm;65076;52.362;6.588;2023-06-24T08:15:43;56.04;42.72;66.80;;
76261;Laerm;65076;52.362;6.588;2023-06-24T08:18:13;54.35;42.48;69.06;;
76261;Laerm;65076;52.362;6.588;2023-06-24T08:20:42;56.79;39.96;74.00;;
76261;Laerm;65076;52.362;6.588;2023-06-24T08:23:10;59.95;39.75;77.70;;
76261;Laerm;65076;52.362;6.588;2023-06-24T08:25:38;62.12;56.10;85.18;;
76261;Laerm;65076;52.362;6.588;2023-06-24T08:28:05;61.91;56.34;82.05;;
76261;Laerm;65076;52.362;6.588;2023-06-24T08:30:33;61.30;55.24;74.52;;
76261;Laerm;65076;52.362;6.588;2023-06-24T08:33:01;59.69;55.33;68.23;;
76261;Laerm;65076;52.362;6.588;2023-06-24T08:35:31;59.56;55.02;67.77;;
76261;Laerm;65076;52.362;6.588;2023-06-24T08:37:59;59.52;53.22;73.78;;
76261;Laerm;65076;52.362;6.588;2023-06-24T08:40:28;60.80;53.94;74.35;;
76261;Laerm;65076;52.362;6.588;2023-06-24T08:42:57;58.94;53.66;70.16;;
76261;Laerm;65076;52.362;6.588;2023-06-24T08:45:26;59.80;51.16;79.13;;
76261;Laerm;65076;52.362;6.588;2023-06-24T08:47:54;58.87;50.33;83.51;;
76261;Laerm;65076;52.362;6.588;2023-06-24T08:50:27;62.13;53.76;76.02;;
76261;Laerm;65076;52.362;6.588;2023-06-24T08:53:03;61.62;40.92;74.95;;
76261;Laerm;65076;52.362;6.588;2023-06-24T08:55:40;54.68;40.62;69.56;;
76261;Laerm;65076;52.362;6.588;2023-06-24T08:58:10;54.40;43.15;69.39;;
76261;Laerm;65076;52.362;6.588;2023-06-24T09:00:38;54.58;41.29;76.12;;
76261;Laerm;65076;52.362;6.588;2023-06-24T09:03:06;64.61;42.75;78.66;;
76261;Laerm;65076;52.362;6.588;2023-06-24T09:05:34;54.94;39.61;73.82;;
76261;Laerm;65076;52.362;6.588;2023-06-24T09:08:04;56.98;39.33;73.62;;
76261;Laerm;65076;52.362;6.588;2023-06-24T09:10:34;61.22;42.57;75.10;;
76261;Laerm;65076;52.362;6.588;2023-06-24T09:13:05;52.20;40.57;75.72;;
76261;Laerm;65076;52.362;6.588;2023-06-24T09:15:35;54.25;39.02;75.94;;
76261;Laerm;65076;52.362;6.588;2023-06-24T09:18:04;60.72;45.02;80.28;;
76261;Laerm;65076;52.362;6.588;2023-06-24T09:20:33;64.88;56.36;77.23;;
76261;Laerm;65076;52.362;6.588;2023-06-24T09:23:07;61.41;55.79;73.39;;
76261;Laerm;65076;52.362;6.588;2023-06-24T09:25:36;63.77;57.54;78.13;;
76261;Laerm;65076;52.362;6.588;2023-06-24T09:28:04;61.16;57.47;72.13;;
76261;Laerm;65076;52.362;6.588;2023-06-24T09:30:32;60.80;57.54;83.10;;
76261;Laerm;65076;52.362;6.588;2023-06-24T09:33:01;60.62;57.45;69.34;;
76261;Laerm;65076;52.362;6.588;2023-06-24T09:35:35;60.72;55.89;76.62;;
76261;Laerm;65076;52.362;6.588;2023-06-24T09:38:04;63.15;56.92;76.53;;
76261;Laerm;65076;52.362;6.588;2023-06-24T09:40:35;64.31;57.50;76.21;;
76261;Laerm;65076;52.362;6.588;2023-06-24T09:43:06;62.08;44.70;73.51;;
76261;Laerm;65076;52.362;6.588;2023-06-24T09:45:35;52.63;40.64;67.09;;
76261;Laerm;65076;52.362;6.588;2023-06-24T09:48:04;54.65;40.22;73.50;;
76261;Laerm;65076;52.362;6.588;2023-06-24T09:50:33;58.38;42.12;74.44;;
76261;Laerm;65076;52.362;6.588;2023-06-24T09:53:02;62.83;47.30;81.30;;
76261;Laerm;65076;52.362;6.588;2023-06-24T09:55:30;62.10;59.01;67.84;;
76261;Laerm;65076;52.362;6.588;2023-06-24T09:58:01;62.16;56.85;79.14;;
76261;Laerm;65076;52.362;6.588;2023-06-24T10:00:29;64.01;48.72;86.25;;
76261;Laerm;65076;52.362;6.588;2023-06-24T10:02:57;62.99;42.92;91.43;;
76261;Laerm;65076;52.362;6.588;2023-06-24T10:05:27;55.10;44.18;64.24;;
76261;Laerm;65076;52.362;6.588;2023-06-24T10:07:55;57.49;45.20;73.04;;
76261;Laerm;65076;52.362;6.588;2023-06-24T10:10:23;57.89;40.95;71.59;;
76261;Laerm;65076;52.362;6.588;2023-06-24T10:12:51;55.21;40.54;66.03;;
76261;Laerm;65076;52.362;6.588;2023-06-24T10:15:22;53.55;37.92;64.68;;
76261;Laerm;65076;52.362;6.588;2023-06-24T10:17:50;55.43;37.98;68.13;;
76261;Laerm;65076;52.362;6.588;2023-06-24T10:20:37;57.19;40.34;72.99;;
76261;Laerm;65076;52.362;6.588;2023-06-24T10:23:06;56.02;40.37;70.86;;
76261;Laerm;65076;52.362;6.588;2023-06-24T10:25:36;57.21;43.18;77.64;;
76261;Laerm;65076;52.362;6.588;2023-06-24T10:28:05;54.05;40.32;63.38;;
76261;Laerm;65076;52.362;6.588;2023-06-24T10:30:36;53.81;42.16;65.45;;
76261;Laerm;65076;52.362;6.588;2023-06-24T10:33:10;61.32;42.38;93.42;;
76261;Laerm;65076;52.362;6.588;2023-06-24T10:35:42;53.10;40.42;73.16;;
76261;Laerm;65076;52.362;6.588;2023-06-24T10:38:10;60.71;42.64;83.45;;
76261;Laerm;65076;52.362;6.588;2023-06-24T10:40:40;55.91;37.75;81.66;;
76261;Laerm;65076;52.362;6.588;2023-06-24T10:43:27;59.93;39.39;73.61;;
76261;Laerm;65076;52.362;6.588;2023-06-24T10:45:58;62.46;39.98;85.56;;
76261;Laerm;65076;52.362;6.588;2023-06-24T10:48:26;54.22;40.30;68.02;;
76261;Laerm;65076;52.362;6.588;2023-06-24T10:50:55;68.21;38.90;81.47;;
76261;Laerm;65076;52.362;6.588;2023-06-24T10:53:23;56.33;40.86;77.03;;
76261;Laerm;65076;52.362;6.588;2023-06-24T10:55:51;56.69;39.36;73.31;;
76261;Laerm;65076;52.362;6.588;2023-06-24T10:58:19;52.30;43.51;63.59;;
76261;Laerm;65076;52.362;6.588;2023-06-24T11:00:47;61.91;42.65;91.14;;
76261;Laerm;65076;52.362;6.588;2023-06-24T11:03:18;54.09;38.98;64.53;;
76261;Laerm;65076;52.362;6.588;2023-06-24T11:05:48;56.86;40.32;75.10;;
76261;Laerm;65076;52.362;6.588;2023-06-24T11:08:16;58.81;43.38;72.81;;
76261;Laerm;65076;52.362;6.588;2023-06-24T11:10:45;58.39;39.69;74.80;;
76261;Laerm;65076;52.362;6.588;2023-06-24T11:13:14;70.84;49.22;79.71;;
76261;Laerm;65076;52.362;6.588;2023-06-24T11:15:43;71.57;51.47;80.67;;
76261;Laerm;65076;52.362;6.588;2023-06-24T11:18:11;68.66;37.42;79.66;;
76261;Laerm;65076;52.362;6.588;2023-06-24T11:20:40;57.48;38.89;72.82;;
76261;Laerm;65076;52.362;6.588;2023-06-24T11:23:10;59.20;38.93;85.17;;
76261;Laerm;65076;52.362;6.588;2023-06-24T11:25:40;66.68;41.61;90.08;;
76261;Laerm;65076;52.362;6.588;2023-06-24T11:28:17;70.15;43.80;93.71;;
76261;Laerm;65076;52.362;6.588;2023-06-24T11:30:49;68.98;40.86;81.13;;
76261;Laerm;65076;52.362;6.588;2023-06-24T11:33:27;54.11;37.30;82.88;;
76261;Laerm;65076;52.362;6.588;2023-06-24T11:35:57;70.10;42.81;89.83;;
76261;Laerm;65076;52.362;6.588;2023-06-24T11:38:25;71.48;52.96;80.86;;
76261;Laerm;65076;52.362;6.588;2023-06-24T11:40:59;72.16;42.16;82.43;;
76261;Laerm;65076;52.362;6.588;2023-06-24T11:43:27;69.53;40.68;87.79;;
76261;Laerm;65076;52.362;6.588;2023-06-24T11:45:55;72.44;51.42;81.41;;
76261;Laerm;65076;52.362;6.588;2023-06-24T11:48:28;67.98;44.41;80.99;;
76261;Laerm;65076;52.362;6.588;2023-06-24T11:50:57;66.83;40.10;87.35;;
76261;Laerm;65076;52.362;6.588;2023-06-24T11:53:41;56.62;42.51;77.79;;
76261;Laerm;65076;52.362;6.588;2023-06-24T11:56:10;53.86;38.44;66.53;;
76261;Laerm;65076;52.362;6.588;2023-06-24T11:58:38;54.73;37.28;75.96;;
76261;Laerm;65076;52.362;6.588;2023-06-24T12:01:07;53.50;41.41;67.41;;
76261;Laerm;65076;52.362;6.588;2023-06-24T12:03:35;70.90;38.63;83.34;;
76261;Laerm;65076;52.362;6.588;2023-06-24T12:06:05;59.20;37.31;73.06;;
76261;Laerm;65076;52.362;6.588;2023-06-24T12:08:33;57.86;38.37;71.61;;
76261;Laerm;65076;52.362;6.588;2023-06-24T12:11:17;57.69;38.54;74.53;;
76261;Laerm;65076;52.362;6.588;2023-06-24T12:13:45;55.97;42.41;71.66;;
76261;Laerm;65076;52.362;6.588;2023-06-24T12:16:13;52.61;36.72;71.16;;
76261;Laerm;65076;52.362;6.588;2023-06-24T12:18:41;54.54;40.69;65.28;;
76261;Laerm;65076;52.362;6.588;2023-06-24T12:21:11;57.55;41.60;74.41;;
76261;Laerm;65076;52.362;6.588;2023-06-24T12:23:39;56.92;39.51;71.54;;
76261;Laerm;65076;52.362;6.588;2023-06-24T12:26:07;55.05;37.82;79.46;;
76261;Laerm;65076;52.362;6.588;2023-06-24T12:28:35;57.61;35.43;76.10;;
76261;Laerm;65076;52.362;6.588;2023-06-24T12:31:03;56.28;38.44;71.87;;
76261;Laerm;65076;52.362;6.588;2023-06-24T12:33:31;52.11;36.84;65.52;;
76261;Laerm;65076;52.362;6.588;2023-06-24T12:35:59;56.10;39.30;72.77;;
76261;Laerm;65076;52.362;6.588;2023-06-24T12:38:28;61.42;43.64;76.15;;
76261;Laerm;65076;52.362;6.588;2023-06-24T12:40:57;57.76;37.48;74.41;;
76261;Laerm;65076;52.362;6.588;2023-06-24T12:43:25;52.59;35.16;63.75;;
76261;Laerm;65076;52.362;6.588;2023-06-24T12:45:53;53.25;36.56;64.52;;
76261;Laerm;65076;52.362;6.588;2023-06-24T12:48:22;52.52;34.55;64.41;;
76261;Laerm;65076;52.362;6.588;2023-06-24T12:50:50;59.62;38.20;77.78;;
76261;Laerm;65076;52.362;6.588;2023-06-24T12:53:20;57.99;38.55;78.63;;
76261;Laerm;65076;52.362;6.588;2023-06-24T12:55:50;55.60;41.41;70.50;;
76261;Laerm;65076;52.362;6.588;2023-06-24T12:58:23;55.11;40.60;73.03;;
76261;Laerm;65076;52.362;6.588;2023-06-24T13:00:51;54.59;41.94;67.44;;
76261;Laerm;65076;52.362;6.588;2023-06-24T13:03:20;55.13;40.62;67.30;;
76261;Laerm;65076;52.362;6.588;2023-06-24T13:05:48;53.50;37.14;66.98;;
76261;Laerm;65076;52.362;6.588;2023-06-24T13:08:15;57.41;39.16;72.65;;
76261;Laerm;65076;52.362;6.588;2023-06-24T13:10:43;59.94;41.89;75.15;;
76261;Laerm;65076;52.362;6.588;2023-06-24T13:13:13;56.03;38.45;75.14;;
76261;Laerm;65076;52.362;6.588;2023-06-24T13:15:41;53.72;40.23;65.83;;
76261;Laerm;65076;52.362;6.588;2023-06-24T13:18:09;51.58;37.86;64.29;;
76261;Laerm;65076;52.362;6.588;2023-06-24T13:20:37;56.50;40.40;73.07;;
76261;Laerm;65076;52.362;6.588;2023-06-24T13:23:05;54.22;40.36;67.77;;
76261;Laerm;65076;52.362;6.588;2023-06-24T13:25:33;56.09;38.28;76.88;;
76261;Laerm;65076;52.362;6.588;2023-06-24T13:28:01;52.56;41.40;62.22;;
76261;Laerm;65076;52.362;6.588;2023-06-24T13:30:31;51.49;38.76;63.07;;
76261;Laerm;65076;52.362;6.588;2023-06-24T13:32:59;54.13;39.49;72.79;;
76261;Laerm;65076;52.362;6.588;2023-06-24T13:35:27;51.56;38.55;64.50;;
76261;Laerm;65076;52.362;6.588;2023-06-24T13:37:55;57.18;40.28;71.52;;
76261;Laerm;65076;52.362;6.588;2023-06-24T13:40:24;58.96;37.32;74.45;;
76261;Laerm;65076;52.362;6.588;2023-06-24T13:42:52;54.63;39.32;76.32;;
76261;Laerm;65076;52.362;6.588;2023-06-24T13:45:20;53.49;37.37;65.15;;
76261;Laerm;65076;52.362;6.588;2023-06-24T13:47:50;51.98;39.72;61.26;;
76261;Laerm;65076;52.362;6.588;2023-06-24T13:50:18;54.34;39.42;64.57;;
76261;Laerm;65076;52.362;6.588;2023-06-24T13:52:46;57.16;42.93;72.20;;
76261;Laerm;65076;52.362;6.588;2023-06-24T13:55:14;54.63;41.55;72.11;;
76261;Laerm;65076;52.362;6.588;2023-06-24T13:57:42;53.35;40.22;69.03;;